Kaan Kalkavan — TCTX2 — position and weather

sailwx.info

Track history (hours):
 
Tides and Currents Weather Stations Pressure Air Temp Water Temp Dewpoint Dewpoint Depression Visibility Wind Speed Wind Dir Waves Ship Positions

Kaan Kalkavan

Last reported at 2018-Jun-18 22:47 UTC. Time now 2018-Jun-19 12:34 UTC.
Position N 32°06' E 034°32'.

Length 183 m; draft 9.1 m.

Type: Ship. MMSI: 271043028.

Date/timePositionNaut miles runAvg speedWind from/ knotsBaromVisibWave heightAir tempDewpointWater temp
2018-Jun-18 22:47N 32°06' E 034°32'415.5
2018-Jun-18 22:30N 32°10' E 034°33'815.4
2018-Jun-18 22:01N 32°17' E 034°36'815.4
2018-Jun-18 21:30N 32°25' E 034°39'815.5
2018-Jun-18 21:01N 32°32' E 034°41'815.2
2018-Jun-18 20:31N 32°39' E 034°44'815.1
2018-Jun-18 20:00N 32°47' E 034°46'714.1
2018-Jun-18 19:29N 32°53' E 034°50'815.2
2018-Jun-18 18:58N 32°52' E 034°59'2 0.1
2018-Jun-17 14:41N 32°50' E 035°01'2 8.2
2018-Jun-17 14:30N 32°51' E 034°60'2 1.0
2018-Jun-17 12:27N 32°53' E 035°00'0 0.0
2018-Jun-17 11:51N 32°53' E 035°00'0 0.0
2018-Jun-17 07:32N 32°53' E 035°00'0 0.1
2018-Jun-17 07:14N 32°53' E 035°00'0 0.1
2018-Jun-17 06:17N 32°53' E 035°00'310.3
2018-Jun-17 06:00N 32°53' E 034°57'714.9
2018-Jun-17 05:30N 32°54' E 034°48'815.0
2018-Jun-17 05:00N 32°55' E 034°39'815.0
2018-Jun-17 04:29N 32°57' E 034°30'4213.8
2018-Jun-17 01:25N 33°39' E 034°31'614.7
2018-Jun-17 01:00N 33°45' E 034°32'2414.3
2018-Jun-16 23:21N 34°09' E 034°36'  
2018-Jun-13 14:12N 39°43' E 025°50'1319.1
2018-Jun-13 13:31N 39°56' E 025°54'019.1
2018-Jun-13 13:30N 39°56' E 025°54'11514.8
2018-Jun-13 05:45N 40°50' E 028°07'1418.9
2018-Jun-13 05:00N 40°51' E 028°25'918.5
2018-Jun-13 04:30N 40°54' E 028°37'32 1.2
2018-Jun-12 01:21N 40°45' E 029°18'61 1.4
2018-Jun-10 04:21N 40°33' E 027°58'718.0
2018-Jun-10 03:59N 40°33' E 027°49'7814.2
2018-Jun-09 22:27N 40°02' E 026°15'1316.2
2018-Jun-09 21:40N 39°58' E 025°59'317.5
2018-Jun-09 21:31N 39°56' E 025°57'2118.2
2018-Jun-09 20:22N 39°36' E 025°49'719.1
2018-Jun-09 19:59N 39°29' E 025°49'919.1
2018-Jun-09 19:31N 39°20' E 025°48'  
Track history (hours):
 
Tides and Currents Weather Stations Pressure Air Temp Water Temp Dewpoint Dewpoint Depression Visibility Wind Speed Wind Dir Waves Ship Positions

Kaan Kalkavan

Last reported at 2018-Jun-18 22:47 UTC. Time now 2018-Jun-19 12:34 UTC.
Position N 32°06' E 034°32'.

Length 183 m; draft 9.1 m.

Type: Ship. MMSI: 271043028.

Date/timePositionNaut miles runAvg speedWind from/ knotsBaromVisibWave heightAir tempDewpointWater temp
2018-Jun-18 22:47N 32°06' E 034°32'415.5
2018-Jun-18 22:30N 32°10' E 034°33'815.4
2018-Jun-18 22:01N 32°17' E 034°36'815.4
2018-Jun-18 21:30N 32°25' E 034°39'815.5
2018-Jun-18 21:01N 32°32' E 034°41'815.2
2018-Jun-18 20:31N 32°39' E 034°44'815.1
2018-Jun-18 20:00N 32°47' E 034°46'714.1
2018-Jun-18 19:29N 32°53' E 034°50'815.2
2018-Jun-18 18:58N 32°52' E 034°59'2 0.1
2018-Jun-17 14:41N 32°50' E 035°01'2 8.2
2018-Jun-17 14:30N 32°51' E 034°60'2 1.0
2018-Jun-17 12:27N 32°53' E 035°00'0 0.0
2018-Jun-17 11:51N 32°53' E 035°00'0 0.0
2018-Jun-17 07:32N 32°53' E 035°00'0 0.1
2018-Jun-17 07:14N 32°53' E 035°00'0 0.1
2018-Jun-17 06:17N 32°53' E 035°00'310.3
2018-Jun-17 06:00N 32°53' E 034°57'714.9
2018-Jun-17 05:30N 32°54' E 034°48'815.0
2018-Jun-17 05:00N 32°55' E 034°39'815.0
2018-Jun-17 04:29N 32°57' E 034°30'4213.8
2018-Jun-17 01:25N 33°39' E 034°31'614.7
2018-Jun-17 01:00N 33°45' E 034°32'2414.3
2018-Jun-16 23:21N 34°09' E 034°36'  
2018-Jun-13 14:12N 39°43' E 025°50'1319.1
2018-Jun-13 13:31N 39°56' E 025°54'019.1
2018-Jun-13 13:30N 39°56' E 025°54'11514.8
2018-Jun-13 05:45N 40°50' E 028°07'1418.9
2018-Jun-13 05:00N 40°51' E 028°25'918.5
2018-Jun-13 04:30N 40°54' E 028°37'32 1.2
2018-Jun-12 01:21N 40°45' E 029°18'61 1.4
2018-Jun-10 04:21N 40°33' E 027°58'718.0
2018-Jun-10 03:59N 40°33' E 027°49'7814.2
2018-Jun-09 22:27N 40°02' E 026°15'1316.2
2018-Jun-09 21:40N 39°58' E 025°59'317.5
2018-Jun-09 21:31N 39°56' E 025°57'2118.2
2018-Jun-09 20:22N 39°36' E 025°49'719.1
2018-Jun-09 19:59N 39°29' E 025°49'919.1
2018-Jun-09 19:31N 39°20' E 025°48'  

Dump ship's entire track history